Las Milpas, Texas
Current Conditions -  °F | °C
As of 12:53 AM on Thursday 18 Dec 2014 (Local Time) from KMFE Reporting Station
Overcast Overcast  
Wind Chill: 70°   Ceiling: 4300
Heat Index: 70°   Visibility: 9mi
Dew Point: 68°   Wind: 8mph
Humidity: 93%   Direction: 140°SE
Pressure: 30.02"   Gusts: NA
Location:  26.1569°N, 98.1914°W
Report Text: KMFE 180653Z AUTO 14007KT 9SM BKN043 OVC049 21/20 A3002 RMK AO2 SLP163 T02110200
Loading
Personal Weather Stations






























Interactive Weather Map New forecast layout! Learn more

10-Day Weather Forecast

Advertisements
Track Severe Weather on mobile